createdAt,value
2022-08-22T00:02:18.830Z,1.65
2022-08-22T00:02:43.872Z,1.50
2022-08-22T00:03:01.344Z,2.03
2022-08-22T00:03:07.363Z,1.60
2022-08-22T00:04:52.208Z,1.90
2022-08-22T00:07:25.772Z,1.88
2022-08-22T00:10:01.687Z,2.13
2022-08-22T00:12:34.725Z,1.60
2022-08-22T00:15:06.317Z,1.70
2022-08-22T00:17:38.481Z,1.63
2022-08-22T00:20:10.782Z,1.70
2022-08-22T00:22:41.990Z,2.08
2022-08-22T00:25:25.532Z,2.00
2022-08-22T00:27:56.274Z,1.70
2022-08-22T00:30:25.501Z,2.00
2022-08-22T00:32:55.805Z,2.00
2022-08-22T00:35:27.389Z,1.83
2022-08-22T00:38:02.609Z,1.83
2022-08-22T00:40:45.277Z,2.05
2022-08-22T00:43:22.096Z,1.88
2022-08-22T00:46:00.617Z,1.90
2022-08-22T00:48:51.635Z,2.30
2022-08-22T00:51:41.539Z,2.33
2022-08-22T00:54:17.523Z,2.03
2022-08-22T00:57:04.396Z,1.70
2022-08-22T00:59:43.384Z,1.83
2022-08-22T01:02:17.409Z,1.73
2022-08-22T01:04:52.077Z,2.30
2022-08-22T01:07:38.395Z,2.03
2022-08-22T01:10:14.945Z,1.83
2022-08-22T01:12:48.269Z,1.83
2022-08-22T01:15:22.697Z,1.73
2022-08-22T01:17:55.394Z,2.22
2022-08-22T01:20:38.777Z,1.98
2022-08-22T01:23:17.646Z,1.88
2022-08-22T01:26:15.683Z,1.77
2022-08-22T01:29:04.789Z,2.22
2022-08-22T01:31:59.863Z,1.83
2022-08-22T01:34:45.939Z,1.88
2022-08-22T01:37:36.011Z,1.88
2022-08-22T01:40:33.093Z,2.13
2022-08-22T01:43:08.361Z,1.50
2022-08-22T01:45:54.765Z,2.25
2022-08-22T01:48:25.793Z,2.10
2022-08-22T01:50:56.737Z,1.92
2022-08-22T01:53:28.201Z,2.10
2022-08-22T01:56:02.479Z,2.10
2022-08-22T01:58:31.955Z,2.00
2022-08-22T02:01:17.032Z,2.20
2022-08-22T02:03:53.940Z,2.15
2022-08-22T02:06:26.514Z,1.80
2022-08-22T02:09:05.850Z,2.00
2022-08-22T02:11:39.763Z,2.17
2022-08-22T02:14:15.496Z,2.17
2022-08-22T02:16:45.589Z,1.80
2022-08-22T02:19:27.966Z,2.30
2022-08-22T02:21:58.868Z,1.92
2022-08-22T02:24:30.793Z,1.90
2022-08-22T02:27:10.404Z,2.20
2022-08-22T02:29:42.912Z,2.25
2022-08-22T02:32:18.338Z,2.35
2022-08-22T02:34:50.949Z,2.25
2022-08-22T02:37:22.945Z,1.98
2022-08-22T02:39:55.430Z,1.88
2022-08-22T02:42:26.533Z,1.88
2022-08-22T02:44:59.438Z,1.98
2022-08-22T02:47:33.523Z,1.90
2022-08-22T02:50:07.134Z,1.85
2022-08-22T02:52:48.899Z,2.13
2022-08-22T02:55:21.797Z,1.92
2022-08-22T02:57:55.427Z,1.98
2022-08-22T03:00:32.789Z,2.10
2022-08-22T03:03:05.916Z,2.25
2022-08-22T03:05:43.632Z,2.20
2022-08-22T03:08:16.005Z,1.60
2022-08-22T03:10:47.793Z,1.90
2022-08-22T03:13:21.000Z,2.20
2022-08-22T03:15:55.154Z,2.08
2022-08-22T03:18:28.118Z,1.58
2022-08-22T03:21:01.869Z,2.40
2022-08-22T03:23:34.898Z,2.25
2022-08-22T03:26:08.204Z,2.35
2022-08-22T03:28:40.237Z,2.53
2022-08-22T03:31:29.167Z,2.28
2022-08-22T03:34:16.012Z,2.30
2022-08-22T03:36:47.873Z,2.03
2022-08-22T03:39:19.661Z,2.33
2022-08-22T03:42:04.612Z,1.95
2022-08-22T03:44:40.698Z,2.05
2022-08-22T03:47:28.852Z,2.33
2022-08-22T03:50:16.126Z,2.00
2022-08-22T03:53:18.593Z,2.13
2022-08-22T03:56:10.077Z,2.00
2022-08-22T03:58:59.293Z,2.10
2022-08-22T04:01:45.681Z,2.15
2022-08-22T04:04:32.042Z,2.20
2022-08-22T04:07:32.169Z,2.20
2022-08-22T04:10:19.388Z,1.92
2022-08-22T04:12:57.861Z,2.40
2022-08-22T04:15:35.867Z,2.13
2022-08-22T04:18:09.861Z,2.40
2022-08-22T04:21:03.512Z,2.50
2022-08-22T04:23:48.045Z,1.77
2022-08-22T04:26:19.252Z,2.03
2022-08-22T04:28:50.923Z,2.40
2022-08-22T04:31:23.631Z,1.80
2022-08-22T04:33:54.533Z,2.15
2022-08-22T04:36:26.459Z,2.00
2022-08-22T04:38:59.260Z,2.25
2022-08-22T04:41:31.609Z,2.30
2022-08-22T04:44:01.968Z,2.20
2022-08-22T04:46:37.021Z,2.13
2022-08-22T04:49:07.492Z,2.17
2022-08-22T04:51:37.793Z,2.35
2022-08-22T04:54:15.390Z,2.20
2022-08-22T04:56:47.576Z,1.92
2022-08-22T04:59:18.427Z,1.85
2022-08-22T05:01:48.848Z,2.15
2022-08-22T05:04:20.298Z,1.92
2022-08-22T05:06:50.109Z,2.10
2022-08-22T05:09:22.344Z,1.90
2022-08-22T05:11:53.095Z,1.85
2022-08-22T05:14:25.985Z,1.85
2022-08-22T05:16:56.193Z,1.95
2022-08-22T05:19:32.070Z,2.17
2022-08-22T05:22:01.008Z,2.05
2022-08-22T05:24:33.980Z,2.08
2022-08-22T05:27:12.348Z,1.63
2022-08-22T05:29:41.992Z,1.95
2022-08-22T05:32:14.242Z,1.80
2022-08-22T05:34:44.153Z,2.03
2022-08-22T05:37:15.136Z,2.13
2022-08-22T05:39:47.782Z,1.95
2022-08-22T05:42:19.576Z,2.47
2022-08-22T05:44:48.124Z,1.95
2022-08-22T05:47:21.513Z,1.90
2022-08-22T05:49:55.121Z,1.70
2022-08-22T05:52:39.157Z,2.00
2022-08-22T05:55:14.013Z,1.77
2022-08-22T05:57:44.105Z,1.70
2022-08-22T06:00:14.470Z,1.63
2022-08-22T06:02:51.424Z,1.92
2022-08-22T06:05:23.370Z,1.50
2022-08-22T06:07:52.544Z,1.70
2022-08-22T06:10:27.194Z,1.85
2022-08-22T06:12:57.761Z,1.95
2022-08-22T06:15:31.017Z,1.70
2022-08-22T06:18:05.261Z,1.60
2022-08-22T06:20:35.958Z,2.10
2022-08-22T06:23:04.656Z,2.47
2022-08-22T06:25:35.416Z,1.60
2022-08-22T06:28:06.075Z,2.20
2022-08-22T06:30:35.288Z,2.35
2022-08-22T06:33:07.155Z,1.65
2022-08-22T06:36:00.405Z,2.05
2022-08-22T06:38:33.591Z,2.10
2022-08-22T06:41:05.713Z,1.90
2022-08-22T06:43:38.677Z,2.30
2022-08-22T06:46:07.507Z,1.80
2022-08-22T06:48:36.930Z,1.65
2022-08-22T06:51:08.330Z,1.60
2022-08-22T06:53:40.246Z,2.13
2022-08-22T06:56:21.156Z,2.03
2022-08-22T06:58:50.565Z,1.42
2022-08-22T07:01:22.698Z,2.00
2022-08-22T07:03:52.743Z,1.90
2022-08-22T07:06:31.368Z,1.30
2022-08-22T07:08:59.993Z,1.77
2022-08-22T07:11:38.588Z,2.47
2022-08-22T07:14:08.316Z,1.45
2022-08-22T07:16:41.565Z,1.38
2022-08-22T07:19:11.183Z,1.42
2022-08-22T07:21:44.037Z,1.98
2022-08-22T07:24:15.371Z,1.50
2022-08-22T07:26:49.820Z,1.73
2022-08-22T07:29:23.146Z,1.60
2022-08-22T07:31:54.728Z,1.60
2022-08-22T07:34:31.173Z,1.70
2022-08-22T07:37:02.179Z,1.52
2022-08-22T07:39:32.527Z,2.00
2022-08-22T07:42:11.442Z,1.45
2022-08-22T07:44:45.284Z,1.52
2022-08-22T07:47:15.667Z,1.98
2022-08-22T07:49:51.585Z,1.60
2022-08-22T07:52:20.907Z,1.45
2022-08-22T07:54:53.610Z,1.92
2022-08-22T07:57:26.449Z,1.70
2022-08-22T07:59:56.852Z,1.30
2022-08-22T08:02:26.520Z,1.63
2022-08-22T08:04:56.530Z,1.60
2022-08-22T08:07:29.046Z,1.65
2022-08-22T08:09:59.750Z,1.30
2022-08-22T08:12:31.638Z,1.70
2022-08-22T08:15:01.169Z,1.55
2022-08-22T08:17:32.423Z,1.23
2022-08-22T08:20:02.332Z,1.30
2022-08-22T08:22:31.228Z,1.67
2022-08-22T08:25:00.616Z,2.28
2022-08-22T08:27:51.273Z,1.75
2022-08-22T08:30:21.478Z,1.60
2022-08-22T08:32:50.781Z,1.75
2022-08-22T08:35:27.917Z,1.30
2022-08-22T08:37:59.087Z,1.58
2022-08-22T08:40:37.242Z,1.33
2022-08-22T08:43:29.923Z,1.48
2022-08-22T08:46:11.352Z,1.55
2022-08-22T08:48:57.502Z,1.10
2022-08-22T08:51:44.008Z,1.10
2022-08-22T08:54:45.432Z,1.05
2022-08-22T08:57:20.704Z,1.40
2022-08-22T08:59:59.979Z,1.20
2022-08-22T09:02:42.623Z,1.10
2022-08-22T09:05:26.504Z,1.25
2022-08-22T09:08:02.285Z,0.90
2022-08-22T09:10:36.365Z,1.10
2022-08-22T09:13:22.605Z,1.02
2022-08-22T09:16:04.617Z,0.98
2022-08-22T09:18:43.001Z,1.10
2022-08-22T09:21:30.799Z,1.50
2022-08-22T09:24:11.667Z,1.35
2022-08-22T09:26:48.176Z,1.00
2022-08-22T09:29:51.445Z,0.90
2022-08-22T09:32:33.785Z,1.20
2022-08-22T09:35:07.289Z,0.82
2022-08-22T09:37:44.650Z,1.30
2022-08-22T09:42:57.152Z,0.95
2022-08-22T09:45:39.880Z,1.08
2022-08-22T09:48:14.135Z,0.95
2022-08-22T09:50:47.976Z,1.08
2022-08-22T09:53:31.224Z,1.30
2022-08-22T09:56:15.087Z,0.98
2022-08-22T09:58:45.617Z,1.10
2022-08-22T10:01:17.750Z,1.15
2022-08-22T10:04:04.689Z,1.10
2022-08-22T10:06:43.140Z,1.08
2022-08-22T10:09:14.270Z,1.05
2022-08-22T10:11:50.095Z,1.10
2022-08-22T10:14:22.335Z,0.88
2022-08-22T10:16:56.393Z,0.95
2022-08-22T10:19:27.958Z,1.00
2022-08-22T10:22:23.269Z,1.05
2022-08-22T10:24:59.983Z,1.08
2022-08-22T10:27:37.513Z,0.95
2022-08-22T10:30:08.869Z,1.05
2022-08-22T10:32:39.760Z,1.13
2022-08-22T10:35:16.959Z,1.10
2022-08-22T10:37:51.022Z,1.20
2022-08-22T10:40:26.284Z,1.38
2022-08-22T10:42:59.573Z,1.35
2022-08-22T10:45:36.082Z,1.17
2022-08-22T10:48:26.668Z,1.40
2022-08-22T10:50:59.288Z,1.17
2022-08-22T10:53:35.017Z,1.27
2022-08-22T10:56:12.080Z,1.00
2022-08-22T10:58:44.051Z,1.20
2022-08-22T11:01:37.926Z,1.10
2022-08-22T11:04:06.809Z,1.42
2022-08-22T11:06:39.540Z,0.98
2022-08-22T11:09:17.097Z,1.30
2022-08-22T11:11:49.629Z,1.38
2022-08-22T11:14:29.432Z,1.10
2022-08-22T11:17:00.691Z,1.05
2022-08-22T11:19:42.657Z,1.13
2022-08-22T11:22:23.195Z,1.30
2022-08-22T11:25:04.962Z,1.17
2022-08-22T11:27:40.809Z,1.33
2022-08-22T11:30:18.275Z,1.20
2022-08-22T11:33:07.186Z,1.00
2022-08-22T11:35:39.704Z,1.00
2022-08-22T11:38:12.916Z,1.15
2022-08-22T11:40:44.619Z,0.90
2022-08-22T11:43:26.210Z,1.10
2022-08-22T11:45:58.263Z,1.05
2022-08-22T11:48:28.577Z,1.00
2022-08-22T11:50:59.999Z,1.20
2022-08-22T11:53:32.854Z,1.13
2022-08-22T11:56:07.941Z,1.00
2022-08-22T11:58:44.858Z,0.90
2022-08-22T12:01:17.469Z,1.00
2022-08-22T12:04:09.875Z,0.88
2022-08-22T12:06:56.537Z,1.10
2022-08-22T12:09:36.063Z,1.02
2022-08-22T12:12:17.163Z,1.30
2022-08-22T12:14:49.385Z,1.10
2022-08-22T12:17:50.616Z,0.98
2022-08-22T12:20:17.365Z,1.25
2022-08-22T12:22:57.587Z,1.40
2022-08-22T12:25:34.142Z,1.17
2022-08-22T12:28:11.744Z,1.10
2022-08-22T12:30:47.673Z,1.35
2022-08-22T12:33:29.654Z,1.20
2022-08-22T12:36:17.950Z,1.15
2022-08-22T12:38:56.953Z,1.25
2022-08-22T12:41:37.675Z,1.00
2022-08-22T12:44:20.253Z,1.00
2022-08-22T12:46:55.616Z,1.20
2022-08-22T12:49:30.742Z,0.98
2022-08-22T12:52:04.325Z,1.20
2022-08-22T12:54:43.005Z,0.90
2022-08-22T12:57:24.294Z,1.10
2022-08-22T12:59:58.243Z,1.00
2022-08-22T13:02:30.422Z,1.02
2022-08-22T13:05:01.659Z,1.13
2022-08-22T13:07:31.370Z,1.20
2022-08-22T13:10:03.119Z,0.90
2022-08-22T13:12:35.177Z,1.20
2022-08-22T13:15:10.767Z,1.00
2022-08-22T13:17:44.749Z,1.15
2022-08-22T13:20:15.895Z,0.90
2022-08-22T13:22:48.027Z,1.10
2022-08-22T13:25:25.930Z,1.08
2022-08-22T13:27:55.777Z,1.00
2022-08-22T13:30:28.653Z,1.00
2022-08-22T13:33:03.492Z,0.90
2022-08-22T13:35:35.238Z,1.00
2022-08-22T13:38:06.387Z,1.10
2022-08-22T13:40:35.754Z,1.10
2022-08-22T13:43:08.001Z,0.90
2022-08-22T13:45:37.436Z,0.90
2022-08-22T13:48:11.402Z,1.05
2022-08-22T13:50:54.794Z,1.00
2022-08-22T13:53:27.814Z,0.90
2022-08-22T13:55:59.368Z,1.00
2022-08-22T13:58:33.590Z,0.98
2022-08-22T14:01:20.686Z,1.00
2022-08-22T14:03:59.460Z,0.90
2022-08-22T14:06:41.396Z,1.10
2022-08-22T14:09:27.920Z,0.90
2022-08-22T14:12:07.473Z,1.00
2022-08-22T14:14:42.119Z,1.00
2022-08-22T14:17:15.934Z,0.90
2022-08-22T14:19:59.573Z,1.00
2022-08-22T14:22:34.818Z,0.98
2022-08-22T14:25:07.568Z,1.30
2022-08-22T14:27:39.716Z,1.10
2022-08-22T14:30:09.524Z,1.00
2022-08-22T14:32:41.819Z,1.13
2022-08-22T14:35:23.317Z,0.93
2022-08-22T14:38:17.284Z,1.10
2022-08-22T14:40:47.296Z,1.05
2022-08-22T14:43:22.500Z,1.20
2022-08-22T14:45:57.292Z,1.05
2022-08-22T14:48:34.547Z,1.02
2022-08-22T14:51:10.160Z,0.95
2022-08-22T14:53:40.339Z,0.80
2022-08-22T14:56:12.196Z,0.88
2022-08-22T14:58:48.837Z,0.80
2022-08-22T15:01:18.633Z,1.10
2022-08-22T15:03:54.614Z,0.80
2022-08-22T15:06:35.189Z,0.90
2022-08-22T15:09:07.701Z,1.00
2022-08-22T15:11:38.149Z,0.90
2022-08-22T15:14:13.539Z,1.00
2022-08-22T15:16:44.220Z,1.23
2022-08-22T15:19:23.434Z,0.90
2022-08-22T15:21:53.874Z,1.35
2022-08-22T15:24:23.404Z,1.15
2022-08-22T15:26:55.410Z,0.85
2022-08-22T15:29:26.616Z,1.00
2022-08-22T15:31:56.954Z,1.00
2022-08-22T15:34:33.717Z,0.95
2022-08-22T15:37:14.294Z,1.05
2022-08-22T15:40:00.569Z,1.40
2022-08-22T15:42:33.640Z,0.90
2022-08-22T15:45:02.785Z,1.10
2022-08-22T15:47:36.769Z,0.88
2022-08-22T15:50:06.401Z,0.90
2022-08-22T15:52:59.649Z,0.90
2022-08-22T15:55:34.465Z,0.80
2022-08-22T15:58:05.724Z,0.85
2022-08-22T16:00:36.128Z,0.90
2022-08-22T16:03:13.740Z,0.82
2022-08-22T16:05:45.468Z,0.80
2022-08-22T16:08:16.117Z,0.77
2022-08-22T16:10:48.189Z,1.23
2022-08-22T16:13:35.556Z,0.98
2022-08-22T16:16:08.117Z,0.95
2022-08-22T16:18:55.405Z,1.00
2022-08-22T16:21:38.705Z,0.88
2022-08-22T16:24:25.937Z,0.80
2022-08-22T16:26:56.036Z,0.90
2022-08-22T16:29:31.425Z,0.93
2022-08-22T16:32:08.921Z,0.98
2022-08-22T16:34:45.873Z,0.90
2022-08-22T16:37:31.957Z,0.90
2022-08-22T16:40:13.164Z,1.20
2022-08-22T16:42:47.479Z,1.15
2022-08-22T16:45:18.281Z,0.77
2022-08-22T16:47:56.776Z,0.80
2022-08-22T16:50:30.147Z,0.80
2022-08-22T16:53:07.536Z,0.85
2022-08-22T16:55:46.994Z,1.10
2022-08-22T16:58:22.125Z,0.98
2022-08-22T17:00:57.661Z,0.80
2022-08-22T17:03:34.608Z,1.05
2022-08-22T17:06:06.322Z,1.00
2022-08-22T17:08:43.448Z,1.17
2022-08-22T17:11:24.433Z,1.30
2022-08-22T17:14:08.209Z,1.20
2022-08-22T17:16:53.761Z,1.20
2022-08-22T17:19:31.759Z,0.90
2022-08-22T17:22:04.606Z,1.13
2022-08-22T17:24:36.057Z,1.13
2022-08-22T17:27:08.000Z,1.00
2022-08-22T17:29:46.210Z,1.40
2022-08-22T17:32:18.684Z,1.40
2022-08-22T17:34:52.810Z,1.10
2022-08-22T17:37:24.122Z,1.30
2022-08-22T17:40:02.458Z,1.10
2022-08-22T17:42:40.336Z,1.10
2022-08-22T17:45:13.512Z,1.40
2022-08-22T17:47:44.190Z,1.40
2022-08-22T17:50:14.680Z,1.55
2022-08-22T17:52:46.101Z,1.10
2022-08-22T17:55:16.961Z,1.48
2022-08-22T17:57:48.994Z,1.20
2022-08-22T18:00:20.329Z,1.40
2022-08-22T18:02:55.810Z,1.40
2022-08-22T18:05:27.657Z,1.33
2022-08-22T18:08:00.756Z,1.30
2022-08-22T18:10:38.457Z,1.63
2022-08-22T18:13:09.647Z,1.30
2022-08-22T18:15:44.155Z,1.35
2022-08-22T18:18:16.795Z,1.40
2022-08-22T18:20:48.585Z,1.50
2022-08-22T18:23:35.627Z,1.48
2022-08-22T18:26:09.932Z,1.15
2022-08-22T18:28:42.185Z,1.20
2022-08-22T18:31:22.652Z,1.65
2022-08-22T18:33:53.754Z,1.50
2022-08-22T18:36:24.434Z,1.65
2022-08-22T18:38:55.881Z,1.50
2022-08-22T18:41:28.130Z,1.33
2022-08-22T18:44:00.072Z,1.20
2022-08-22T18:46:43.380Z,1.45
2022-08-22T18:49:36.810Z,1.60
2022-08-22T18:52:29.245Z,1.60
2022-08-22T18:55:03.958Z,2.35
2022-08-22T18:57:42.754Z,1.25
2022-08-22T19:00:16.700Z,1.70
2022-08-22T19:03:03.534Z,1.38
2022-08-22T19:05:42.171Z,1.30
2022-08-22T19:08:19.049Z,1.30
2022-08-22T19:10:52.570Z,1.60
2022-08-22T19:13:27.381Z,1.40
2022-08-22T19:16:01.347Z,1.50
2022-08-22T19:18:36.307Z,1.50
2022-08-22T19:21:37.876Z,1.17
2022-08-22T19:24:08.926Z,1.30
2022-08-22T19:26:39.221Z,1.33
2022-08-22T19:29:28.048Z,1.45
2022-08-22T19:31:57.785Z,1.75
2022-08-22T19:34:37.129Z,1.40
2022-08-22T19:37:32.134Z,1.50
2022-08-22T19:40:08.538Z,1.50
2022-08-22T19:42:38.892Z,1.88
2022-08-22T19:45:09.865Z,1.60
2022-08-22T19:47:39.397Z,1.67
2022-08-22T19:50:13.113Z,1.42
2022-08-22T19:52:48.253Z,1.23
2022-08-22T19:55:21.074Z,1.33
2022-08-22T19:57:52.025Z,1.52
2022-08-22T20:00:22.515Z,1.40
2022-08-22T20:02:57.451Z,1.73
2022-08-22T20:05:29.682Z,1.40
2022-08-22T20:08:05.986Z,1.85
2022-08-22T20:10:41.863Z,1.35
2022-08-22T20:13:12.017Z,1.48
2022-08-22T20:15:55.309Z,1.52
2022-08-22T20:19:06.117Z,1.55
2022-08-22T20:21:41.087Z,1.90
2022-08-22T20:24:10.957Z,1.67
2022-08-22T20:26:57.648Z,1.52
2022-08-22T20:29:31.671Z,1.40
2022-08-22T20:32:00.733Z,1.52
2022-08-22T20:34:30.649Z,1.60
2022-08-22T20:37:23.754Z,1.77
2022-08-22T20:39:58.527Z,1.58
2022-08-22T20:42:32.616Z,1.60
2022-08-22T20:45:02.549Z,1.55
2022-08-22T20:47:42.865Z,1.77
2022-08-22T20:50:14.914Z,1.90
2022-08-22T20:52:51.875Z,2.00
2022-08-22T20:55:27.249Z,1.70
2022-08-22T20:58:02.609Z,1.88
2022-08-22T21:00:33.549Z,2.00
2022-08-22T21:03:03.398Z,1.70
2022-08-22T21:05:35.125Z,1.85
2022-08-22T21:08:04.677Z,1.50
2022-08-22T21:10:51.553Z,1.90
2022-08-22T21:13:22.809Z,1.75
2022-08-22T21:15:52.498Z,1.88
2022-08-22T21:18:28.777Z,1.50
2022-08-22T21:21:07.083Z,1.90
2022-08-22T21:23:46.921Z,1.65
2022-08-22T21:26:21.769Z,1.67
2022-08-22T21:28:58.732Z,2.00
2022-08-22T21:31:28.755Z,2.13
2022-08-22T21:33:57.974Z,1.45
2022-08-22T21:36:29.040Z,2.08
2022-08-22T21:38:59.468Z,1.70
2022-08-22T21:41:28.911Z,1.40
2022-08-22T21:44:18.312Z,1.13
2022-08-22T21:46:46.821Z,1.58
2022-08-22T21:49:22.436Z,1.40
2022-08-22T21:51:50.953Z,1.65
2022-08-22T21:54:23.508Z,1.30
2022-08-22T21:56:52.996Z,1.08
2022-08-22T21:59:24.830Z,1.65
2022-08-22T22:01:53.770Z,1.77
2022-08-22T22:04:24.176Z,1.40
2022-08-22T22:06:52.672Z,1.42
2022-08-22T22:09:21.155Z,1.35
2022-08-22T22:11:49.649Z,1.50
2022-08-22T22:14:18.105Z,1.67
2022-08-22T22:16:47.944Z,1.17
2022-08-22T22:19:16.448Z,1.60
2022-08-22T22:21:44.916Z,1.52
2022-08-22T22:24:13.378Z,2.20
2022-08-22T22:26:41.836Z,1.52
2022-08-22T22:29:10.844Z,1.27
2022-08-22T22:31:39.316Z,1.45
2022-08-22T22:34:09.204Z,1.52
2022-08-22T22:36:37.785Z,1.42
2022-08-22T22:39:06.329Z,1.60
2022-08-22T22:41:34.799Z,1.27
2022-08-22T22:44:03.658Z,1.77
2022-08-22T22:46:32.744Z,1.55
2022-08-22T22:49:01.205Z,1.42
2022-08-22T22:51:31.143Z,1.60
2022-08-22T22:53:59.634Z,1.45
2022-08-22T22:56:28.107Z,1.70
2022-08-22T22:59:12.480Z,2.00
2022-08-22T23:02:00.747Z,1.42
2022-08-22T23:04:29.240Z,1.70
2022-08-22T23:06:59.189Z,1.52
2022-08-22T23:09:28.242Z,1.40
2022-08-22T23:12:07.906Z,1.65
2022-08-22T23:14:36.925Z,1.42
2022-08-22T23:17:06.365Z,1.50
2022-08-22T23:19:35.187Z,1.80
2022-08-22T23:22:05.040Z,1.70
2022-08-22T23:24:33.709Z,2.00
2022-08-22T23:27:02.169Z,1.88
2022-08-22T23:29:30.669Z,1.33
2022-08-22T23:32:00.569Z,1.60
2022-08-22T23:34:29.921Z,1.65
2022-08-22T23:36:59.270Z,1.83
2022-08-22T23:39:30.653Z,1.80
2022-08-22T23:41:59.533Z,1.70
2022-08-22T23:44:28.953Z,1.83
2022-08-22T23:46:57.705Z,1.80
2022-08-22T23:49:26.548Z,1.80
2022-08-22T23:51:55.214Z,1.60
2022-08-22T23:54:24.226Z,1.85
2022-08-22T23:56:54.837Z,1.70
2022-08-22T23:59:25.042Z,1.40
